Latest Weather Observations for Birdsville

IDQ60801

Issued at 10:05 pm EST Friday 28 November 2014 (issued every 30 minutes, with the page automatically refreshed every 10 minutes)

About weather observations | Map of weather stations | Latest weather observations for QLD | Other Formats
Station Details ID: 038026 Name: BIRDSVILLE AIRPORT Lat: -25.90 Lon: 139.35 Height: 46.6 m
Data from the previous 72 hours. | See also: Recent months at Birdsville
Date/Time
EST
Temp
°C
App
Temp
°C
Dew
Point
Rel
Hum
%
Delta-T
°C
Wind Press
QNH
hPa
Press
MSL
hPa
Rain
since 9 am
mm
Dir
 
Spd
km/h
Gust
km/h
Spd
kts
Gust
kts
28/10:00pm 29.5 28.4 17.3 47 7.7 E 19 24 10 13 1008.7 - 1.8
28/09:30pm 29.3 27.5 17.8 50 7.3 E 24 30 13 16 1008.7 - 1.8
28/09:00pm 28.2 26.8 18.0 54 6.5 E 22 30 12 16 1009.0 1008.7 1.8
28/08:30pm 29.6 27.1 17.1 47 7.9 E 26 35 14 19 1009.4 - 0.4
28/08:00pm 31.8 29.8 14.9 36 10.4 S 19 28 10 15 1008.8 - 0.2
28/07:53pm 32.0 29.9 17.1 41 9.5 SW 24 37 13 20 1008.2 - 0.0
28/07:30pm 37.2 34.9 10.5 20 15.7 NE 13 24 7 13 1007.2 - 0.0
28/07:00pm 37.2 34.9 10.5 20 15.7 ENE 13 19 7 10 1006.5 - 0.0
28/06:30pm 37.3 33.5 9.8 19 16.0 ENE 20 30 11 16 1006.4 - 0.0
28/06:00pm 37.0 30.5 10.3 20 15.7 NE 35 44 19 24 1006.4 1006.1 0.0
28/05:57pm 37.5 32.2 10.0 19 16.1 NE 28 44 15 24 1006.2 - 0.0
28/05:30pm 39.9 37.2 7.4 14 18.5 WSW 11 20 6 11 1005.9 - 0.0
28/05:00pm 40.1 37.4 7.5 14 18.6 WSW 11 24 6 13 1005.8 - 0.0
28/04:30pm 40.2 37.2 7.6 14 18.6 W 13 22 7 12 1006.1 - 0.0
28/04:00pm 39.7 37.1 9.2 16 17.8 NNW 13 19 7 10 1006.4 - 0.0
28/03:30pm 38.5 36.5 10.0 18 16.8 NNE 11 15 6 8 1006.8 - 0.0
28/03:00pm 39.2 36.5 8.8 16 17.6 E 13 20 7 11 1007.0 1006.8 0.0
28/02:30pm 39.6 37.7 9.1 16 17.8 NNW 9 19 5 10 1007.7 - 0.0
28/02:00pm 39.9 38.3 10.2 17 17.6 S 9 17 5 9 1008.0 - 0.0
28/01:30pm 38.2 36.1 9.7 18 16.7 NE 11 20 6 11 1008.6 - 0.0
28/01:00pm 38.1 36.8 11.2 20 16.1 NNW 9 17 5 9 1009.2 - 0.0
28/12:30pm 37.7 36.9 11.6 21 15.7 S 7 17 4 9 1009.7 - 0.0
28/12:00pm 37.4 35.0 11.4 21 15.5 NW 15 22 8 12 1010.1 1009.8 0.0
28/11:30am 37.5 36.5 12.2 22 15.3 NW 9 22 5 12 1010.5 - 0.0
28/11:00am 35.7 33.9 12.0 24 14.2 NE 13 24 7 13 1010.7 - 0.0
28/10:30am 35.5 33.4 12.5 25 13.9 NNE 15 24 8 13 1011.1 - 0.0
28/10:00am 34.5 34.0 12.8 27 13.1 N 7 17 4 9 1011.1 - 0.0
28/09:30am 33.7 32.8 12.7 28 12.6 NNE 9 15 5 8 1011.3 - 0.0
28/09:00am 33.2 31.9 11.1 26 12.9 E 9 20 5 11 1011.5 1011.2 0.0
28/08:30am 31.8 28.3 5.3 19 14.0 ESE 13 17 7 9 1011.5 - 0.0
28/08:00am 30.0 25.1 2.3 17 13.8 SE 17 20 9 11 1011.3 - 0.0
28/07:30am 28.7 23.3 1.3 17 13.3 SE 19 22 10 12 1011.1 - 0.0
28/07:00am 27.5 22.5 1.1 18 12.6 SE 17 20 9 11 1010.9 - 0.0
28/06:30am 26.4 20.9 0.9 19 12.1 SE 19 22 10 12 1010.6 - 0.0
28/06:00am 26.0 21.0 1.3 20 11.8 SE 17 20 9 11 1010.4 1010.0 0.0
28/05:30am 26.1 21.1 1.4 20 11.8 SE 17 20 9 11 1010.2 - 0.0
28/05:00am 26.5 21.1 1.0 19 12.1 SE 19 24 10 13 1009.9 - 0.0
28/04:30am 26.7 21.1 1.2 19 12.2 SE 20 24 11 13 1009.7 - 0.0
28/04:00am 26.9 21.2 0.6 18 12.4 SSE 20 26 11 14 1009.7 - 0.0
28/03:30am 27.5 21.8 0.3 17 12.8 SSE 20 26 11 14 1010.0 - 0.0
28/03:00am 28.0 22.2 -0.1 16 13.2 SSE 20 28 11 15 1009.8 1009.5 0.0
28/02:30am 28.7 22.5 -0.5 15 13.7 SSE 22 30 12 16 1010.1 - 0.0
28/02:00am 29.0 22.8 -0.2 15 13.8 SSE 22 28 12 15 1010.3 - 0.0
28/01:30am 29.6 23.8 0.2 15 14.1 S 20 28 11 15 1010.6 - 0.0
28/01:00am 30.2 24.4 2.5 17 13.8 S 22 30 12 16 1010.9 - 0.0
28/12:30am 30.9 25.7 3.8 18 13.9 S 20 32 11 17 1011.0 - 0.0
28/12:00am 31.4 26.3 4.2 18 14.1 S 20 28 11 15 1011.1 1010.8 0.0
 
Date/Time
EST
Temp
°C
App
Temp
°C
Dew
Point
Rel
Hum
%
Delta-T
°C
Wind Press
QNH
hPa
Press
MSL
hPa
Rain
since 9 am
mm
Dir
 
Spd
km/h
Gust
km/h
Spd
kts
Gust
kts
27/11:30pm 31.9 27.3 5.4 19 14.1 S 19 26 10 14 1011.5 - 0.0
27/11:00pm 32.5 27.2 5.1 18 14.5 S 22 28 12 15 1011.5 - 0.0
27/10:30pm 32.8 28.0 5.4 18 14.6 S 20 26 11 14 1011.7 - 0.0
27/10:00pm 33.4 28.3 5.9 18 14.8 S 22 30 12 16 1011.4 - 0.0
27/09:30pm 33.9 28.5 6.3 18 15.0 S 24 32 13 17 1011.1 - 0.0
27/09:00pm 34.2 28.8 6.5 18 15.2 S 24 32 13 17 1010.9 1010.6 0.0
27/08:30pm 34.5 29.0 5.9 17 15.5 S 24 30 13 16 1010.7 - 0.0
27/08:00pm 34.9 29.5 6.2 17 15.7 S 24 30 13 16 1010.6 - 0.0
27/07:30pm 35.2 29.5 6.5 17 15.8 S 26 35 14 19 1010.3 - 0.0
27/07:00pm 35.8 30.2 7.0 17 16.0 S 26 35 14 19 1009.9 - 0.0
27/06:30pm 36.4 30.3 6.6 16 16.5 S 28 37 15 20 1009.5 - 0.0
27/06:00pm 36.9 30.7 6.0 15 17.0 S 28 35 15 19 1009.1 1008.8 0.0
27/05:30pm 37.5 30.4 6.5 15 17.2 S 33 35 18 19 1008.9 - 0.0
27/05:00pm 37.6 31.9 6.6 15 17.3 SSE 26 35 14 19 1008.8 - 0.0
27/04:30pm 38.0 32.7 6.9 15 17.4 S 24 35 13 19 1008.8 - 0.0
27/04:00pm 38.3 33.4 7.1 15 17.6 S 22 32 12 17 1009.0 - 0.0
27/03:30pm 38.8 34.4 7.5 15 17.8 S 20 32 11 17 1009.3 - 0.0
27/03:00pm 38.1 35.7 7.0 15 17.5 SW 9 24 5 13 1009.7 1009.4 0.0
27/02:30pm 38.5 34.6 7.3 15 17.6 S 17 30 9 16 1010.1 - 0.0
27/02:00pm 37.9 33.6 6.8 15 17.4 SSE 19 32 10 17 1010.6 - 0.0
27/01:30pm 38.6 36.4 9.2 17 17.1 E 11 28 6 15 1010.9 - 0.0
27/01:00pm 38.2 35.9 8.9 17 16.9 ESE 11 26 6 14 1011.5 - 0.0
27/12:30pm 36.3 33.6 7.4 17 16.2 ESE 11 24 6 13 1012.0 - 0.0
27/12:00pm 36.1 33.4 7.2 17 16.1 SE 11 22 6 12 1012.5 1012.2 0.0
27/11:30am 35.2 31.0 5.6 16 16.0 ESE 17 24 9 13 1012.8 - 0.0
27/11:00am 34.6 29.3 3.2 14 16.3 ESE 20 28 11 15 1013.0 - 0.0
27/10:30am 33.8 27.3 2.6 14 16.0 ESE 26 43 14 23 1013.3 - 0.0
27/10:00am 33.0 25.7 -0.2 12 16.2 SE 28 35 15 19 1013.4 - 0.0
27/09:30am 31.3 23.4 -1.5 12 15.4 SE 30 39 16 21 1013.6 - 0.0
27/09:00am 30.7 22.8 -1.9 12 15.2 SE 30 39 16 21 1013.5 1013.2 0.0
27/08:30am 29.9 21.9 -2.6 12 14.8 SE 30 37 16 20 1013.4 - 0.0
27/08:00am 28.8 21.0 -3.4 12 14.4 SE 28 35 15 19 1013.5 - 0.0
27/07:30am 27.8 20.8 -3.1 13 13.8 SE 24 32 13 17 1013.5 - 0.0
27/07:00am 26.3 20.3 -3.3 14 13.0 SSE 19 26 10 14 1013.3 - 0.0
27/06:30am 25.3 19.7 -3.2 15 12.4 SSE 17 22 9 12 1012.9 - 0.0
27/06:00am 25.1 19.5 -3.3 15 12.3 SSE 17 22 9 12 1012.7 1012.4 0.0
27/05:30am 25.4 19.4 -3.1 15 12.4 SSE 19 26 10 14 1012.3 - 0.0
27/05:00am 25.8 20.2 -2.8 15 12.6 SSE 17 22 9 12 1012.0 - 0.0
27/04:30am 26.3 20.8 -2.4 15 12.8 SSE 17 20 9 11 1011.7 - 0.0
27/04:00am 26.6 21.2 -1.3 16 12.7 SSE 17 20 9 11 1011.7 - 0.0
27/03:30am 27.0 21.5 -1.8 15 13.0 SSE 17 20 9 11 1011.7 - 0.0
27/03:00am 27.4 21.5 -2.4 14 13.4 SSE 19 24 10 13 1011.6 1011.3 0.0
27/02:30am 27.8 21.6 -3.1 13 13.8 SSE 20 26 11 14 1011.5 - 0.0
27/02:00am 28.0 21.3 -4.0 12 14.0 SSE 22 28 12 15 1011.6 - 0.0
27/01:30am 28.5 21.9 -3.6 12 14.2 SSE 22 32 12 17 1011.7 - 0.0
27/01:00am 28.9 22.7 -3.3 12 14.4 SSE 20 28 11 15 1011.8 - 0.0
27/12:30am 29.3 23.1 -3.0 12 14.6 SSE 20 26 11 14 1012.3 - 0.0
27/12:00am 29.4 23.2 -2.9 12 14.6 SE 20 24 11 13 1012.6 1012.3 0.0
 
Date/Time
EST
Temp
°C
App
Temp
°C
Dew
Point
Rel
Hum
%
Delta-T
°C
Wind Press
QNH
hPa
Press
MSL
hPa
Rain
since 9 am
mm
Dir
 
Spd
km/h
Gust
km/h
Spd
kts
Gust
kts
26/11:30pm 30.4 23.8 -3.3 11 15.3 SSE 22 28 12 15 1012.8 - 0.0
26/11:00pm 31.0 23.5 -1.7 12 15.3 S 28 35 15 19 1012.8 - 0.0
26/10:30pm 31.5 23.8 -0.2 13 15.3 S 30 39 16 21 1012.5 - 0.0
26/10:00pm 32.0 24.6 2.1 15 15.0 S 30 39 16 21 1012.3 - 0.0
26/09:30pm 32.7 26.9 4.5 17 14.8 S 24 30 13 16 1012.0 - 0.0
26/09:00pm 33.1 27.9 5.6 18 14.7 S 22 28 12 15 1011.7 1011.5 0.0
26/08:30pm 33.6 28.3 6.8 19 14.7 S 24 33 13 18 1011.4 - 0.0
26/08:00pm 34.1 28.9 7.2 19 14.9 S 24 28 13 15 1011.0 - 0.0
26/07:30pm 34.6 28.9 6.8 18 15.3 S 26 39 14 21 1010.7 - 0.0
26/07:00pm 35.4 29.1 7.5 18 15.6 S 30 39 16 21 1010.4 - 0.0
26/06:30pm 36.1 30.3 8.0 18 15.9 S 28 33 15 18 1010.2 - 0.0
26/06:00pm 36.7 30.3 8.5 18 16.1 S 32 43 17 23 1009.9 1009.5 0.0
26/05:30pm 36.8 31.5 8.6 18 16.1 S 26 35 14 19 1009.7 - 0.0
26/05:00pm 37.5 32.6 10.0 19 16.1 S 26 37 14 20 1009.7 - 0.0
26/04:30pm 37.5 33.8 10.0 19 16.1 SSE 20 26 11 14 1009.9 - 0.0
26/04:00pm 37.3 32.4 9.8 19 16.0 SSE 26 37 14 20 1010.2 - 0.0
26/03:30pm 37.9 33.3 9.5 18 16.5 S 24 33 13 18 1010.4 - 0.0
26/03:00pm 36.9 32.6 9.5 19 15.9 SE 22 32 12 17 1010.7 1010.4 0.0
26/02:30pm 37.5 33.8 10.0 19 16.1 SSE 20 32 11 17 1011.0 - 0.0
26/02:00pm 36.9 33.2 10.2 20 15.6 SSE 20 32 11 17 1011.3 - 0.0
26/01:30pm 36.2 32.0 9.7 20 15.4 S 22 33 12 18 1011.9 - 0.0
26/01:00pm 35.9 32.6 9.4 20 15.3 ESE 17 26 9 14 1012.4 - 0.0
26/12:30pm 35.5 32.1 9.1 20 15.1 SSE 17 28 9 15 1013.0 - 0.0
26/12:00pm 34.8 30.5 9.3 21 14.6 ESE 22 33 12 18 1013.2 1012.9 0.0
26/11:30am 34.1 28.9 7.2 19 14.9 SSE 24 35 13 19 1013.6 - 0.0
26/11:00am 33.1 27.3 6.4 19 14.5 SE 26 35 14 19 1014.1 - 0.0
26/10:30am 32.2 25.4 3.2 16 14.9 SE 28 35 15 19 1014.5 - 0.0
26/10:05am 31.8 25.1 3.8 17 14.5 SE 28 48 15 26 1014.5 - 0.0
26/10:00am 31.5 25.2 3.5 17 14.4 SE 26 35 14 19 1014.6 - 0.0
26/09:30am 30.0 23.1 2.3 17 13.8 SE 28 37 15 20 1014.6 - 0.0
26/09:00am 28.7 22.1 2.1 18 13.1 SE 26 35 14 19 1014.8 1014.5 0.0
26/08:30am 28.3 20.5 1.7 18 13.0 SSE 32 41 17 22 1014.6 - 0.0
26/08:00am 26.9 18.9 0.6 18 12.4 SE 32 41 17 22 1014.3 - 0.0
26/07:30am 26.4 18.7 0.2 18 12.3 SSE 30 39 16 21 1014.4 - 0.0
26/07:00am 25.4 19.1 1.5 21 11.4 SSE 24 30 13 16 1014.3 - 0.0
26/06:30am 24.5 19.1 2.6 24 10.6 SSE 20 28 11 15 1014.1 - 0.0
26/06:00am 24.1 19.1 3.4 26 10.1 SSE 19 28 10 15 1013.8 1013.5 0.0
26/05:30am 24.3 19.2 4.1 27 10.0 SSE 20 26 11 14 1013.4 - 0.0
26/05:00am 24.5 19.2 4.8 28 9.9 SSE 22 30 12 16 1013.3 - 0.0
26/04:30am 24.7 19.4 5.0 28 9.9 SSE 22 32 12 17 1013.1 - 0.0
26/04:00am 24.8 20.1 6.1 30 9.6 SSE 20 28 11 15 1013.0 - 0.0
26/03:30am 25.1 20.3 7.3 32 9.4 SSE 22 28 12 15 1012.8 - 0.0
26/03:00am 25.2 21.1 7.8 33 9.3 SSE 19 24 10 13 1013.1 1012.8 0.0
26/02:30am 25.8 21.5 7.9 32 9.6 S 20 26 11 14 1013.2 - 0.0
26/02:00am 26.7 22.5 8.2 31 10.0 SSE 20 26 11 14 1013.5 - 0.0
26/01:30am 27.0 22.8 8.4 31 10.1 SSE 20 30 11 16 1013.6 - 0.0
26/01:00am 27.2 22.7 8.6 31 10.1 SSE 22 32 12 17 1013.6 - 0.0
26/12:30am 27.2 22.2 8.1 30 10.3 SSE 24 35 13 19 1013.9 - 0.0
26/12:00am 27.4 22.5 8.3 30 10.4 SSE 24 30 13 16 1014.1 1013.7 0.0
 
Date/Time
EST
Temp
°C
App
Temp
°C
Dew
Point
Rel
Hum
%
Delta-T
°C
Wind Press
QNH
hPa
Press
MSL
hPa
Rain
since 9 am
mm
Dir
 
Spd
km/h
Gust
km/h
Spd
kts
Gust
kts
25/11:30pm 27.5 22.1 7.9 29 10.6 SSE 26 33 14 18 1014.1 - 0.0
25/11:00pm 27.6 23.3 8.0 29 10.6 SSE 20 28 11 15 1014.5 - 0.0
25/10:30pm 27.7 22.9 7.5 28 10.8 SSE 22 30 12 16 1014.3 - 0.0

Other Formats:

Comma delimited format used in spreadsheet applications
http://www.bom.gov.au/fwo/IDQ60801/IDQ60801.95482.axf

JavaScript Object Notation format (JSON) in row-major order
http://www.bom.gov.au/fwo/IDQ60801/IDQ60801.95482.json